createdAt,value
2022-08-12T00:02:05.682Z,99538.59
2022-08-12T00:05:27.841Z,99533.03
2022-08-12T00:08:50.391Z,99544.91
2022-08-12T00:12:11.596Z,99543.63
2022-08-12T00:15:37.179Z,99553.19
2022-08-12T00:18:58.520Z,99555.59
2022-08-12T00:22:20.266Z,99546.00
2022-08-12T00:26:18.969Z,99551.41
2022-08-12T00:29:23.193Z,99541.09
2022-08-12T00:32:54.756Z,99554.41
2022-08-12T00:36:35.811Z,99544.84
2022-08-12T00:39:57.223Z,99545.41
2022-08-12T00:43:02.864Z,99539.22
2022-08-12T00:46:23.793Z,99545.53
2022-08-12T00:49:30.699Z,99545.69
2022-08-12T00:52:35.571Z,99545.19
2022-08-12T00:55:46.112Z,99545.59
2022-08-12T00:58:51.003Z,99532.09
2022-08-12T01:02:10.542Z,99537.16
2022-08-12T01:05:37.124Z,99536.19
2022-08-12T01:09:14.023Z,99547.75
2022-08-12T01:12:18.941Z,99551.97
2022-08-12T01:15:23.217Z,99548.69
2022-08-12T01:18:29.204Z,99548.53
2022-08-12T01:21:59.901Z,99549.81
2022-08-12T01:25:08.123Z,99563.13
2022-08-12T01:28:13.832Z,99548.47
2022-08-12T01:31:19.389Z,99554.56
2022-08-12T01:34:35.715Z,99552.31
2022-08-12T01:37:57.812Z,99543.19
2022-08-12T01:41:03.652Z,99535.63
2022-08-12T01:44:10.610Z,99526.31
2022-08-12T01:47:31.357Z,99526.81
2022-08-12T01:50:43.051Z,99516.84
2022-08-12T01:54:06.359Z,99532.94
2022-08-12T01:57:14.915Z,99527.53
2022-08-12T02:00:20.056Z,99526.41
2022-08-12T02:04:13.045Z,99514.81
2022-08-12T02:07:49.221Z,99523.13
2022-08-12T02:11:16.746Z,99513.81
2022-08-12T02:14:45.350Z,99510.91
2022-08-12T02:18:00.269Z,99505.38
2022-08-12T02:21:06.907Z,99509.56
2022-08-12T02:24:14.545Z,99516.16
2022-08-12T02:27:20.537Z,99512.25
2022-08-12T02:30:33.308Z,99510.41
2022-08-12T02:33:46.855Z,99522.22
2022-08-12T02:36:50.859Z,99522.03
2022-08-12T02:39:58.147Z,99524.50
2022-08-12T02:43:05.789Z,99522.09
2022-08-12T02:46:14.957Z,99527.41
2022-08-12T02:49:24.301Z,99526.91
2022-08-12T02:52:28.757Z,99526.47
2022-08-12T02:55:36.283Z,99524.34
2022-08-12T02:58:45.372Z,99527.91
2022-08-12T03:01:53.594Z,99538.34
2022-08-12T03:04:59.378Z,99537.75
2022-08-12T03:08:05.605Z,99541.84
2022-08-12T03:11:20.809Z,99533.13
2022-08-12T03:14:29.693Z,99528.28
2022-08-12T03:17:39.598Z,99539.97
2022-08-12T03:20:42.918Z,99531.50
2022-08-12T03:23:48.033Z,99540.78
2022-08-12T03:26:53.092Z,99541.31
2022-08-12T03:29:59.605Z,99537.16
2022-08-12T03:33:06.201Z,99541.47
2022-08-12T03:36:10.944Z,99542.53
2022-08-12T03:39:36.158Z,99539.06
2022-08-12T03:42:52.197Z,99548.78
2022-08-12T03:46:15.617Z,99552.16
2022-08-12T03:49:38.368Z,99544.63
2022-08-12T03:52:59.079Z,99537.66
2022-08-12T03:56:19.820Z,99541.72
2022-08-12T03:59:40.650Z,99540.63
2022-08-12T04:02:43.889Z,99539.50
2022-08-12T04:05:54.515Z,99547.97
2022-08-12T04:09:00.425Z,99547.59
2022-08-12T04:12:22.619Z,99545.78
2022-08-12T04:15:34.339Z,99551.25
2022-08-12T04:18:38.773Z,99551.03
2022-08-12T04:22:01.821Z,99550.28
2022-08-12T04:25:07.475Z,99549.66
2022-08-12T04:28:14.372Z,99552.28
2022-08-12T04:31:17.659Z,99549.53
2022-08-12T04:34:22.575Z,99544.88
2022-08-12T04:37:27.641Z,99560.31
2022-08-12T04:40:34.268Z,99563.13
2022-08-12T04:43:59.989Z,99568.28
2022-08-12T04:47:02.067Z,99558.91
2022-08-12T04:50:34.135Z,99562.66
2022-08-12T04:53:36.080Z,99567.84
2022-08-12T04:56:40.555Z,99568.63
2022-08-12T04:59:47.766Z,99565.94
2022-08-12T05:02:52.503Z,99567.72
2022-08-12T05:05:56.836Z,99570.38
2022-08-12T05:09:02.067Z,99577.44
2022-08-12T05:12:14.471Z,99577.66
2022-08-12T05:15:21.231Z,99577.50
2022-08-12T05:18:31.180Z,99588.59
2022-08-12T05:21:34.582Z,99592.00
2022-08-12T05:24:39.273Z,99591.28
2022-08-12T05:27:55.598Z,99595.13
2022-08-12T05:31:03.041Z,99589.63
2022-08-12T05:34:06.972Z,99596.13
2022-08-12T05:37:10.290Z,99594.97
2022-08-12T05:40:16.430Z,99590.97
2022-08-12T05:43:19.828Z,99590.88
2022-08-12T05:46:25.367Z,99590.19
2022-08-12T05:49:29.824Z,99594.41
2022-08-12T05:52:33.133Z,99596.75
2022-08-12T05:55:38.043Z,99595.09
2022-08-12T05:58:41.320Z,99595.28
2022-08-12T06:02:09.137Z,99579.94
2022-08-12T06:05:10.689Z,99586.03
2022-08-12T06:08:15.518Z,99585.91
2022-08-12T06:11:20.459Z,99586.88
2022-08-12T06:14:24.179Z,99581.31
2022-08-12T06:17:31.436Z,99584.00
2022-08-12T06:20:35.599Z,99586.16
2022-08-12T06:23:42.605Z,99587.63
2022-08-12T06:26:47.610Z,99585.19
2022-08-12T06:30:08.523Z,99583.28
2022-08-12T06:33:22.909Z,99585.31
2022-08-12T06:36:30.015Z,99586.16
2022-08-12T06:39:36.079Z,99580.81
2022-08-12T06:42:49.646Z,99580.94
2022-08-12T06:45:53.785Z,99583.09
2022-08-12T06:48:59.390Z,99588.38
2022-08-12T06:52:04.842Z,99583.00
2022-08-12T06:55:12.080Z,99582.25
2022-08-12T06:58:18.075Z,99578.69
2022-08-12T07:01:21.383Z,99572.00
2022-08-12T07:04:40.297Z,99571.47
2022-08-12T07:07:46.590Z,99565.03
2022-08-12T07:10:53.596Z,99563.06
2022-08-12T07:14:02.338Z,99556.59
2022-08-12T07:17:16.277Z,99556.53
2022-08-12T07:20:42.620Z,99554.13
2022-08-12T07:23:43.718Z,99552.88
2022-08-12T07:26:46.995Z,99557.56
2022-08-12T07:30:03.589Z,99545.91
2022-08-12T07:33:09.751Z,99541.63
2022-08-12T07:36:15.308Z,99545.69
2022-08-12T07:39:18.598Z,99545.06
2022-08-12T07:42:22.008Z,99547.44
2022-08-12T07:45:26.708Z,99536.50
2022-08-12T07:48:36.865Z,99545.47
2022-08-12T07:51:40.744Z,99534.00
2022-08-12T07:54:44.497Z,99542.56
2022-08-12T07:57:58.698Z,99544.94
2022-08-12T08:01:05.245Z,99537.81
2022-08-12T08:04:32.521Z,99538.25
2022-08-12T08:07:35.859Z,99535.81
2022-08-12T08:10:39.134Z,99533.41
2022-08-12T08:13:41.421Z,99531.25
2022-08-12T08:16:46.477Z,99524.31
2022-08-12T08:20:02.653Z,99521.97
2022-08-12T08:23:10.584Z,99517.63
2022-08-12T08:26:15.747Z,99515.59
2022-08-12T08:29:21.372Z,99512.03
2022-08-12T08:32:26.044Z,99519.16
2022-08-12T08:35:32.864Z,99514.03
2022-08-12T08:38:55.019Z,99507.22
2022-08-12T08:42:20.552Z,99513.88
2022-08-12T08:45:24.082Z,99515.59
2022-08-12T08:48:30.500Z,99498.19
2022-08-12T08:51:33.958Z,99507.25
2022-08-12T08:54:37.888Z,99492.06
2022-08-12T08:57:44.771Z,99490.00
2022-08-12T09:00:49.915Z,99484.88
2022-08-12T09:05:12.290Z,99475.50
2022-08-12T09:07:51.277Z,99484.13
2022-08-12T09:10:45.133Z,99478.22
2022-08-12T09:17:42.174Z,99467.16
2022-08-12T09:20:51.022Z,99457.34
2022-08-12T09:27:27.163Z,99464.44
2022-08-12T09:30:47.498Z,99465.88
2022-08-12T09:34:28.975Z,99467.19
2022-08-12T09:37:20.099Z,99463.03
2022-08-12T09:40:57.632Z,99464.63
2022-08-12T09:44:38.345Z,99463.47
2022-08-12T09:47:33.646Z,99456.97
2022-08-12T09:50:39.633Z,99459.53
2022-08-12T09:54:10.667Z,99454.63
2022-08-12T09:58:45.515Z,99447.31
2022-08-12T10:00:52.245Z,99443.31
2022-08-12T10:04:04.231Z,99439.78
2022-08-12T10:07:22.490Z,99433.56
2022-08-12T10:10:30.580Z,99425.28
2022-08-12T10:13:44.170Z,99428.47
2022-08-12T10:16:49.293Z,99427.53
2022-08-12T10:19:53.189Z,99419.41
2022-08-12T10:23:01.901Z,99421.47
2022-08-12T10:26:37.945Z,99412.94
2022-08-12T10:30:03.706Z,99409.41
2022-08-12T10:33:18.340Z,99410.50
2022-08-12T10:36:36.157Z,99401.78
2022-08-12T10:40:03.200Z,99398.00
2022-08-12T10:43:26.212Z,99398.94
2022-08-12T10:46:32.037Z,99391.72
2022-08-12T10:50:05.827Z,99388.06
2022-08-12T10:53:01.124Z,99379.94
2022-08-12T10:56:05.322Z,99382.31
2022-08-12T10:59:10.565Z,99375.91
2022-08-12T11:04:31.874Z,99376.91
2022-08-12T11:07:07.717Z,99362.38
2022-08-12T11:09:02.277Z,99365.50
2022-08-12T11:12:55.744Z,99359.97
2022-08-12T11:16:03.512Z,99351.69
2022-08-12T11:19:02.874Z,99351.25
2022-08-12T11:22:11.857Z,99339.09
2022-08-12T11:25:15.155Z,99348.56
2022-08-12T11:28:33.439Z,99345.56
2022-08-12T11:31:55.839Z,99346.13
2022-08-12T11:34:59.778Z,99331.19
2022-08-12T11:38:03.461Z,99329.69
2022-08-12T11:41:07.207Z,99328.38
2022-08-12T11:44:37.175Z,99321.31
2022-08-12T11:47:35.108Z,99321.50
2022-08-12T11:50:44.632Z,99322.00
2022-08-12T11:53:57.662Z,99313.34
2022-08-12T11:58:33.861Z,99316.56
2022-08-12T12:03:52.483Z,99314.44
2022-08-12T12:07:06.978Z,99297.84
2022-08-12T12:10:11.974Z,99291.06
2022-08-12T12:14:05.359Z,99294.03
2022-08-12T12:16:40.033Z,99286.09
2022-08-12T12:19:53.321Z,99275.81
2022-08-12T12:22:56.664Z,99274.94
2022-08-12T12:26:08.128Z,99265.59
2022-08-12T12:30:14.909Z,99262.19
2022-08-12T12:32:35.127Z,99253.91
2022-08-12T12:36:16.578Z,99258.16
2022-08-12T12:39:06.430Z,99249.19
2022-08-12T12:42:43.251Z,99247.59
2022-08-12T12:45:39.331Z,99234.50
2022-08-12T12:48:47.419Z,99241.91
2022-08-12T12:52:18.705Z,99248.06
2022-08-12T12:55:16.416Z,99243.03
2022-08-12T12:58:20.787Z,99237.41
2022-08-12T13:01:30.947Z,99233.31
2022-08-12T13:04:37.283Z,99224.63
2022-08-12T13:07:49.365Z,99222.44
2022-08-12T13:11:00.816Z,99212.38
2022-08-12T13:14:08.941Z,99214.91
2022-08-12T13:17:17.595Z,99212.84
2022-08-12T13:20:38.020Z,99209.91
2022-08-12T13:23:50.196Z,99208.59
2022-08-12T13:26:53.461Z,99218.28
2022-08-12T13:30:01.955Z,99223.56
2022-08-12T13:33:07.232Z,99217.50
2022-08-12T13:36:21.573Z,99217.38
2022-08-12T13:39:29.431Z,99212.19
2022-08-12T13:42:32.669Z,99207.78
2022-08-12T13:45:36.976Z,99209.88
2022-08-12T13:48:45.222Z,99206.66
2022-08-12T13:51:52.972Z,99194.16
2022-08-12T13:54:58.951Z,99197.16
2022-08-12T13:58:05.312Z,99196.44
2022-08-12T14:01:17.428Z,99197.38
2022-08-12T14:04:22.996Z,99185.53
2022-08-12T14:07:28.178Z,99193.28
2022-08-12T14:10:55.884Z,99186.31
2022-08-12T14:14:05.504Z,99185.63
2022-08-12T14:17:19.870Z,99179.53
2022-08-12T14:20:23.398Z,99190.97
2022-08-12T14:24:04.486Z,99182.38
2022-08-12T14:26:57.107Z,99180.72
2022-08-12T14:30:15.676Z,99177.59
2022-08-12T14:33:29.642Z,99187.00
2022-08-12T14:36:51.298Z,99183.03
2022-08-12T14:39:54.873Z,99182.81
2022-08-12T14:43:00.150Z,99176.09
2022-08-12T14:46:04.091Z,99175.28
2022-08-12T14:49:27.361Z,99178.66
2022-08-12T14:53:50.714Z,99171.72
2022-08-12T14:59:58.329Z,99171.72
2022-08-12T15:03:00.133Z,99164.22
2022-08-12T15:06:43.693Z,99166.03
2022-08-12T15:09:29.343Z,99160.25
2022-08-12T15:12:34.588Z,99158.53
2022-08-12T15:15:43.918Z,99159.06
2022-08-12T15:18:55.343Z,99151.84
2022-08-12T15:22:38.132Z,99147.09
2022-08-12T15:25:26.157Z,99145.84
2022-08-12T15:28:32.426Z,99146.16
2022-08-12T15:31:59.498Z,99143.00
2022-08-12T15:35:01.543Z,99146.28
2022-08-12T15:38:10.118Z,99153.22
2022-08-12T15:41:16.260Z,99150.75
2022-08-12T15:44:38.109Z,99154.59
2022-08-12T15:47:49.550Z,99154.00
2022-08-12T15:50:55.098Z,99149.66
2022-08-12T15:54:33.989Z,99145.47
2022-08-12T15:57:33.439Z,99145.34
2022-08-12T16:00:39.369Z,99145.63
2022-08-12T16:04:00.248Z,99143.31
2022-08-12T16:07:06.020Z,99138.50
2022-08-12T16:10:12.939Z,99131.09
2022-08-12T16:13:25.444Z,99135.97
2022-08-12T16:16:38.495Z,99137.63
2022-08-12T16:20:03.353Z,99136.13
2022-08-12T16:23:26.602Z,99136.91
2022-08-12T16:26:34.947Z,99132.06
2022-08-12T16:29:52.991Z,99133.16
2022-08-12T16:32:59.458Z,99135.69
2022-08-12T16:36:11.258Z,99135.59
2022-08-12T16:39:14.857Z,99137.59
2022-08-12T16:42:22.576Z,99143.59
2022-08-12T16:46:05.169Z,99147.44
2022-08-12T16:48:57.232Z,99145.09
2022-08-12T16:52:07.990Z,99138.50
2022-08-12T16:55:18.695Z,99146.81
2022-08-12T16:58:30.488Z,99151.38
2022-08-12T17:01:37.626Z,99154.56
2022-08-12T17:04:52.819Z,99150.50
2022-08-12T17:07:57.987Z,99158.97
2022-08-12T17:11:01.383Z,99165.38
2022-08-12T17:14:05.616Z,99164.72
2022-08-12T17:17:18.403Z,99166.41
2022-08-12T17:20:37.824Z,99156.09
2022-08-12T17:23:53.656Z,99166.66
2022-08-12T17:26:58.583Z,99174.59
2022-08-12T17:30:04.528Z,99170.91
2022-08-12T17:33:09.090Z,99175.41
2022-08-12T17:36:12.723Z,99175.88
2022-08-12T17:39:17.511Z,99172.28
2022-08-12T17:42:34.773Z,99170.34
2022-08-12T17:45:42.349Z,99172.44
2022-08-12T17:48:54.998Z,99173.34
2022-08-12T17:52:02.445Z,99177.22
2022-08-12T17:55:33.587Z,99177.75
2022-08-12T17:58:37.518Z,99174.53
2022-08-12T18:01:45.396Z,99173.22
2022-08-12T18:05:03.144Z,99186.09
2022-08-12T18:08:11.845Z,99188.28
2022-08-12T18:12:05.505Z,99192.25
2022-08-12T18:15:00.582Z,99182.63
2022-08-12T18:18:05.959Z,99185.84
2022-08-12T18:21:20.405Z,99191.69
2022-08-12T18:24:29.319Z,99189.31
2022-08-12T18:27:44.034Z,99196.53
2022-08-12T18:30:52.566Z,99197.59
2022-08-12T18:34:00.866Z,99197.31
2022-08-12T18:37:26.655Z,99201.03
2022-08-12T18:40:47.776Z,99200.75
2022-08-12T18:44:00.191Z,99204.53
2022-08-12T18:47:09.696Z,99204.78
2022-08-12T18:50:17.819Z,99207.72
2022-08-12T18:54:05.304Z,99205.50
2022-08-12T18:56:46.508Z,99205.59
2022-08-12T18:59:59.866Z,99208.50
2022-08-12T19:03:09.231Z,99217.66
2022-08-12T19:06:38.155Z,99221.38
2022-08-12T19:09:57.816Z,99228.97
2022-08-12T19:13:23.434Z,99225.75
2022-08-12T19:16:30.592Z,99217.38
2022-08-12T19:19:41.653Z,99222.75
2022-08-12T19:22:59.995Z,99220.03
2022-08-12T19:26:10.759Z,99222.66
2022-08-12T19:29:18.764Z,99230.53
2022-08-12T19:32:28.395Z,99222.50
2022-08-12T19:36:07.655Z,99217.09
2022-08-12T19:38:58.424Z,99213.94
2022-08-12T19:42:02.511Z,99217.41
2022-08-12T19:45:12.158Z,99220.91
2022-08-12T19:48:19.708Z,99216.16
2022-08-12T19:51:33.276Z,99216.59
2022-08-12T19:54:37.235Z,99215.78
2022-08-12T19:57:42.349Z,99219.25
2022-08-12T20:00:53.408Z,99217.94
2022-08-12T20:03:59.350Z,99215.59
2022-08-12T20:07:03.406Z,99212.81
2022-08-12T20:10:12.084Z,99203.41
2022-08-12T20:13:27.187Z,99204.88
2022-08-12T20:16:52.103Z,99205.34
2022-08-12T20:20:05.619Z,99202.50
2022-08-12T20:23:50.386Z,99205.41
2022-08-12T20:26:49.033Z,99208.41
2022-08-12T20:29:54.407Z,99206.06
2022-08-12T20:33:00.542Z,99208.03
2022-08-12T20:36:40.113Z,99199.28
2022-08-12T20:39:52.022Z,99198.47
2022-08-12T20:42:57.875Z,99200.34
2022-08-12T20:46:01.193Z,99199.66
2022-08-12T20:49:14.588Z,99200.88
2022-08-12T20:52:24.375Z,99206.00
2022-08-12T20:55:43.083Z,99206.69
2022-08-12T20:58:47.715Z,99207.63
2022-08-12T21:01:53.848Z,99209.88
2022-08-12T21:05:16.655Z,99202.09
2022-08-12T21:08:27.371Z,99213.88
2022-08-12T21:11:32.349Z,99214.97
2022-08-12T21:14:39.908Z,99218.19
2022-08-12T21:21:22.965Z,99226.50
2022-08-12T21:24:32.346Z,99221.69
2022-08-12T21:27:58.790Z,99219.69
2022-08-12T21:32:34.847Z,99222.06
2022-08-12T21:34:26.231Z,99223.41
2022-08-12T21:37:37.136Z,99215.88
2022-08-12T21:40:52.658Z,99219.47
2022-08-12T21:44:01.549Z,99223.81
2022-08-12T21:47:19.616Z,99223.63
2022-08-12T21:50:28.974Z,99211.63
2022-08-12T21:54:07.870Z,99214.66
2022-08-12T21:56:58.251Z,99217.22
2022-08-12T22:00:01.595Z,99222.28
2022-08-12T22:04:02.301Z,99219.19
2022-08-12T22:06:53.644Z,99213.13
2022-08-12T22:09:57.424Z,99212.59
2022-08-12T22:13:02.798Z,99211.25
2022-08-12T22:16:06.435Z,99209.16
2022-08-12T22:19:09.825Z,99206.09
2022-08-12T22:22:13.928Z,99201.88
2022-08-12T22:25:17.284Z,99195.41
2022-08-12T22:28:42.202Z,99208.59
2022-08-12T22:31:45.730Z,99205.63
2022-08-12T22:35:09.196Z,99201.13
2022-08-12T22:38:17.202Z,99200.59
2022-08-12T22:41:42.577Z,99195.16
2022-08-12T22:45:04.933Z,99189.94
2022-08-12T22:48:08.763Z,99192.47
2022-08-12T22:51:14.279Z,99190.91
2022-08-12T22:54:35.512Z,99193.56
2022-08-12T22:57:53.555Z,99196.56
2022-08-12T23:01:02.581Z,99196.94
2022-08-12T23:04:07.845Z,99191.75
2022-08-12T23:07:13.696Z,99193.38
2022-08-12T23:10:17.773Z,99191.88
2022-08-12T23:13:43.918Z,99186.00
2022-08-12T23:16:52.395Z,99186.16
2022-08-12T23:19:55.758Z,99184.00
2022-08-12T23:23:02.824Z,99192.16
2022-08-12T23:26:12.300Z,99194.25
2022-08-12T23:29:25.803Z,99188.13
2022-08-12T23:32:40.409Z,99188.28
2022-08-12T23:35:54.098Z,99194.50
2022-08-12T23:40:15.429Z,99187.28
2022-08-12T23:42:31.256Z,99179.69
2022-08-12T23:45:34.674Z,99177.41
2022-08-12T23:48:40.736Z,99177.19
2022-08-12T23:51:44.367Z,99175.31
2022-08-12T23:54:58.314Z,99170.97
2022-08-12T23:58:21.076Z,99166.72
